Search for airport 
image banner adimage banner adimage banner ad
image banner ad

3PN9 - Phil Cain Memorial Field

Located in Export, United States

ICAO - 3PN9, IATA -

Data provided by Airmate  

General information

Coordinates: N40°26'30" W79°33'0"
Elevation is 1210 feet MSL.
Magnetic variation is -09° East
View others Airports in Pennsylvania

Operational data

Special qualification required
Current time UTC:
Current local time:
Weather at : KLBE - Arnold Palmer Rgnl ( 22 km )
METAR: KLBE 150535Z AUTO 00000KT 10SM CLR 15/15 A2989 RMK AO2
TAF: KLBE 150445Z 1505/1524 00000KT 1SM BR SCT002 TEMPO 1509/1512 1/2SM FG BKN001 FM151300 33010G18KT P6SM SCT040
View NOTAMs / SUP AIP / TFR affecting this airport [VIEW]
Communications frequencies: [VIEW]

Runways:

RWY identifierQFULength (ft)Width (ft)SurfaceLDA (ft)
05700100GRASS
23700100GRASS

Airport contact information

Address: Export United States

Satellite view of 3PN9